Terminal Aerodrome Forecast
Issued by NWS Spokane, WA

Current Version | Previous Version | Text Only | Print | Product List | Glossary On
Versions: 1 2 3 4 5 6 7 8 9 10 11 12 13 14 15 16 17 18 19 20 21 22 23 24 25 26 27 28 29 30 31 32 33 34 35 36 37 38 39 40 41 42 43 44 45 46 47 48 49 50
960
FTUS46 KOTX 230540 CCB
TAFEAT
TAF COR
KEAT 230540Z 2306/2406 00000KT 1SM BR SCT003 OVC007
      TEMPO 2306/2310 1/2SM FG BKN003
     FM231300 31002KT 3SM BR OVC008
     FM231900 29003KT P6SM OVC015
     FM232200 29005KT P6SM SCT015 BKN100
     FM240400 30004KT 4SM BR OVC009=

USA.gov is the U.S. government's official web portal to all federal, state and local government web resources and services.